sensor_id;sensor_type;location;lat;lon;timestamp;temperature;humidity
25718;DHT22;13574;52.040;5.692;2023-05-07T00:02:06;19.00;99.90
25718;DHT22;13574;52.040;5.692;2023-05-07T00:04:32;19.10;99.90
25718;DHT22;13574;52.040;5.692;2023-05-07T00:07:02;19.00;99.90
25718;DHT22;13574;52.040;5.692;2023-05-07T00:09:28;19.00;99.90
25718;DHT22;13574;52.040;5.692;2023-05-07T00:11:54;19.10;99.90
25718;DHT22;13574;52.040;5.692;2023-05-07T00:14:19;19.00;99.90
25718;DHT22;13574;52.040;5.692;2023-05-07T00:16:45;19.00;99.90
25718;DHT22;13574;52.040;5.692;2023-05-07T00:19:11;19.00;99.90
25718;DHT22;13574;52.040;5.692;2023-05-07T00:21:36;19.10;99.90
25718;DHT22;13574;52.040;5.692;2023-05-07T00:24:02;19.00;99.90
25718;DHT22;13574;52.040;5.692;2023-05-07T00:26:28;18.90;99.90
25718;DHT22;13574;52.040;5.692;2023-05-07T00:28:54;19.00;99.90
25718;DHT22;13574;52.040;5.692;2023-05-07T00:31:19;19.00;99.90
25718;DHT22;13574;52.040;5.692;2023-05-07T00:33:45;19.00;99.90
25718;DHT22;13574;52.040;5.692;2023-05-07T00:36:11;18.90;99.90
25718;DHT22;13574;52.040;5.692;2023-05-07T00:38:36;19.10;99.90
25718;DHT22;13574;52.040;5.692;2023-05-07T00:41:02;19.00;99.90
25718;DHT22;13574;52.040;5.692;2023-05-07T00:43:28;19.00;99.90
25718;DHT22;13574;52.040;5.692;2023-05-07T00:45:54;18.80;99.90
25718;DHT22;13574;52.040;5.692;2023-05-07T00:48:20;18.90;99.90
25718;DHT22;13574;52.040;5.692;2023-05-07T00:50:46;18.90;99.90
25718;DHT22;13574;52.040;5.692;2023-05-07T00:53:12;18.80;99.90
25718;DHT22;13574;52.040;5.692;2023-05-07T00:55:38;18.90;99.90
25718;DHT22;13574;52.040;5.692;2023-05-07T00:58:04;18.80;99.90
25718;DHT22;13574;52.040;5.692;2023-05-07T01:00:31;18.70;99.90
25718;DHT22;13574;52.040;5.692;2023-05-07T01:02:57;18.70;99.90
25718;DHT22;13574;52.040;5.692;2023-05-07T01:05:23;18.70;99.90
25718;DHT22;13574;52.040;5.692;2023-05-07T01:07:51;18.70;99.90
25718;DHT22;13574;52.040;5.692;2023-05-07T01:10:17;18.70;99.90
25718;DHT22;13574;52.040;5.692;2023-05-07T01:12:44;18.70;99.90
25718;DHT22;13574;52.040;5.692;2023-05-07T01:15:10;18.70;99.90
25718;DHT22;13574;52.040;5.692;2023-05-07T01:17:37;18.60;99.90
25718;DHT22;13574;52.040;5.692;2023-05-07T01:20:05;18.60;99.90
25718;DHT22;13574;52.040;5.692;2023-05-07T01:22:34;18.60;99.90
25718;DHT22;13574;52.040;5.692;2023-05-07T01:25:03;18.70;99.90
25718;DHT22;13574;52.040;5.692;2023-05-07T01:27:29;18.60;99.90
25718;DHT22;13574;52.040;5.692;2023-05-07T01:29:55;18.60;99.90
25718;DHT22;13574;52.040;5.692;2023-05-07T01:32:35;18.60;99.90
25718;DHT22;13574;52.040;5.692;2023-05-07T01:35:05;18.60;99.90
25718;DHT22;13574;52.040;5.692;2023-05-07T01:37:33;18.70;99.90
25718;DHT22;13574;52.040;5.692;2023-05-07T01:39:59;18.70;99.90
25718;DHT22;13574;52.040;5.692;2023-05-07T01:42:26;18.70;99.90
25718;DHT22;13574;52.040;5.692;2023-05-07T01:44:52;18.80;99.90
25718;DHT22;13574;52.040;5.692;2023-05-07T01:47:17;18.80;99.90
25718;DHT22;13574;52.040;5.692;2023-05-07T01:49:44;18.90;99.90
25718;DHT22;13574;52.040;5.692;2023-05-07T01:52:10;18.90;99.90
25718;DHT22;13574;52.040;5.692;2023-05-07T01:54:37;18.80;99.90
25718;DHT22;13574;52.040;5.692;2023-05-07T01:57:02;18.80;99.90
25718;DHT22;13574;52.040;5.692;2023-05-07T01:59:28;18.90;99.90
25718;DHT22;13574;52.040;5.692;2023-05-07T02:01:54;18.70;99.90
25718;DHT22;13574;52.040;5.692;2023-05-07T02:04:20;18.80;99.90
25718;DHT22;13574;52.040;5.692;2023-05-07T02:06:45;18.80;99.90
25718;DHT22;13574;52.040;5.692;2023-05-07T02:09:11;18.90;99.90
25718;DHT22;13574;52.040;5.692;2023-05-07T02:11:37;18.90;99.90
25718;DHT22;13574;52.040;5.692;2023-05-07T02:14:02;18.90;99.90
25718;DHT22;13574;52.040;5.692;2023-05-07T02:16:28;18.90;99.90
25718;DHT22;13574;52.040;5.692;2023-05-07T02:18:54;18.80;99.90
25718;DHT22;13574;52.040;5.692;2023-05-07T02:21:20;18.90;99.90
25718;DHT22;13574;52.040;5.692;2023-05-07T02:23:45;19.00;99.90
25718;DHT22;13574;52.040;5.692;2023-05-07T02:26:11;18.90;99.90
25718;DHT22;13574;52.040;5.692;2023-05-07T02:28:37;19.00;99.90
25718;DHT22;13574;52.040;5.692;2023-05-07T02:31:03;19.00;99.90
25718;DHT22;13574;52.040;5.692;2023-05-07T02:33:29;19.10;99.90
25718;DHT22;13574;52.040;5.692;2023-05-07T02:35:56;19.10;99.90
25718;DHT22;13574;52.040;5.692;2023-05-07T02:38:22;19.10;99.90
25718;DHT22;13574;52.040;5.692;2023-05-07T02:40:48;19.00;99.90
25718;DHT22;13574;52.040;5.692;2023-05-07T02:43:13;19.00;99.90
25718;DHT22;13574;52.040;5.692;2023-05-07T02:45:39;19.10;99.90
25718;DHT22;13574;52.040;5.692;2023-05-07T02:48:05;19.00;99.90
25718;DHT22;13574;52.040;5.692;2023-05-07T02:50:31;19.10;99.90
25718;DHT22;13574;52.040;5.692;2023-05-07T02:52:58;19.20;99.90
25718;DHT22;13574;52.040;5.692;2023-05-07T02:55:24;19.20;99.90
25718;DHT22;13574;52.040;5.692;2023-05-07T02:57:50;19.00;99.90
25718;DHT22;13574;52.040;5.692;2023-05-07T03:00:17;19.00;99.90
25718;DHT22;13574;52.040;5.692;2023-05-07T03:02:44;18.90;99.90
25718;DHT22;13574;52.040;5.692;2023-05-07T03:05:11;18.90;99.90
25718;DHT22;13574;52.040;5.692;2023-05-07T03:07:37;18.60;99.90
25718;DHT22;13574;52.040;5.692;2023-05-07T03:10:03;18.60;99.90
25718;DHT22;13574;52.040;5.692;2023-05-07T03:12:29;18.50;99.90
25718;DHT22;13574;52.040;5.692;2023-05-07T03:14:55;18.50;99.90
25718;DHT22;13574;52.040;5.692;2023-05-07T03:17:21;18.50;99.90
25718;DHT22;13574;52.040;5.692;2023-05-07T03:19:47;18.30;99.90
25718;DHT22;13574;52.040;5.692;2023-05-07T03:22:12;18.20;99.90
25718;DHT22;13574;52.040;5.692;2023-05-07T03:24:38;18.40;99.90
25718;DHT22;13574;52.040;5.692;2023-05-07T03:27:03;18.40;99.90
25718;DHT22;13574;52.040;5.692;2023-05-07T03:29:29;18.10;99.90
25718;DHT22;13574;52.040;5.692;2023-05-07T03:31:55;18.10;99.90
25718;DHT22;13574;52.040;5.692;2023-05-07T03:34:20;17.80;99.90
25718;DHT22;13574;52.040;5.692;2023-05-07T03:36:50;18.10;99.90
25718;DHT22;13574;52.040;5.692;2023-05-07T03:39:16;18.20;99.90
25718;DHT22;13574;52.040;5.692;2023-05-07T03:41:41;18.40;99.90
25718;DHT22;13574;52.040;5.692;2023-05-07T03:44:07;18.50;99.90
25718;DHT22;13574;52.040;5.692;2023-05-07T03:46:33;18.30;99.90
25718;DHT22;13574;52.040;5.692;2023-05-07T03:48:59;18.30;99.90
25718;DHT22;13574;52.040;5.692;2023-05-07T03:51:25;18.40;99.90
25718;DHT22;13574;52.040;5.692;2023-05-07T03:53:51;18.50;99.90
25718;DHT22;13574;52.040;5.692;2023-05-07T03:56:18;18.50;99.90
25718;DHT22;13574;52.040;5.692;2023-05-07T03:58:44;18.20;99.90
25718;DHT22;13574;52.040;5.692;2023-05-07T04:01:10;18.20;99.90
25718;DHT22;13574;52.040;5.692;2023-05-07T04:03:36;18.20;99.90
25718;DHT22;13574;52.040;5.692;2023-05-07T04:06:02;18.30;99.90
25718;DHT22;13574;52.040;5.692;2023-05-07T04:08:28;18.30;99.90
25718;DHT22;13574;52.040;5.692;2023-05-07T04:10:57;18.00;99.90
25718;DHT22;13574;52.040;5.692;2023-05-07T04:13:24;18.20;99.90
25718;DHT22;13574;52.040;5.692;2023-05-07T04:15:50;18.10;99.90
25718;DHT22;13574;52.040;5.692;2023-05-07T04:18:16;18.10;99.90
25718;DHT22;13574;52.040;5.692;2023-05-07T04:20:41;17.90;99.90
25718;DHT22;13574;52.040;5.692;2023-05-07T04:23:07;18.00;99.90
25718;DHT22;13574;52.040;5.692;2023-05-07T04:25:33;18.10;99.90
25718;DHT22;13574;52.040;5.692;2023-05-07T04:27:59;18.10;99.90
25718;DHT22;13574;52.040;5.692;2023-05-07T04:30:25;18.10;99.90
25718;DHT22;13574;52.040;5.692;2023-05-07T04:32:51;18.10;99.90
25718;DHT22;13574;52.040;5.692;2023-05-07T04:35:18;18.10;99.90
25718;DHT22;13574;52.040;5.692;2023-05-07T04:37:44;18.20;99.90
25718;DHT22;13574;52.040;5.692;2023-05-07T04:40:11;18.10;99.90
25718;DHT22;13574;52.040;5.692;2023-05-07T04:42:36;18.10;99.90
25718;DHT22;13574;52.040;5.692;2023-05-07T04:45:02;18.00;99.90
25718;DHT22;13574;52.040;5.692;2023-05-07T04:47:28;18.00;99.90
25718;DHT22;13574;52.040;5.692;2023-05-07T04:49:54;18.10;99.90
25718;DHT22;13574;52.040;5.692;2023-05-07T04:52:19;18.00;99.90
25718;DHT22;13574;52.040;5.692;2023-05-07T04:54:45;18.10;99.90
25718;DHT22;13574;52.040;5.692;2023-05-07T04:57:11;18.00;99.90
25718;DHT22;13574;52.040;5.692;2023-05-07T04:59:36;18.00;99.90
25718;DHT22;13574;52.040;5.692;2023-05-07T05:02:02;18.00;99.90
25718;DHT22;13574;52.040;5.692;2023-05-07T05:04:29;18.00;99.90
25718;DHT22;13574;52.040;5.692;2023-05-07T05:06:55;17.90;99.90
25718;DHT22;13574;52.040;5.692;2023-05-07T05:09:21;17.80;99.90
25718;DHT22;13574;52.040;5.692;2023-05-07T05:11:47;17.80;99.90
25718;DHT22;13574;52.040;5.692;2023-05-07T05:14:12;17.90;99.90
25718;DHT22;13574;52.040;5.692;2023-05-07T05:16:38;17.90;99.90
25718;DHT22;13574;52.040;5.692;2023-05-07T05:19:04;18.00;99.90
25718;DHT22;13574;52.040;5.692;2023-05-07T05:21:31;18.20;99.90
25718;DHT22;13574;52.040;5.692;2023-05-07T05:23:56;18.40;99.90
25718;DHT22;13574;52.040;5.692;2023-05-07T05:26:22;18.30;99.90
25718;DHT22;13574;52.040;5.692;2023-05-07T05:28:48;18.30;99.90
25718;DHT22;13574;52.040;5.692;2023-05-07T05:31:13;18.40;99.90
25718;DHT22;13574;52.040;5.692;2023-05-07T05:33:39;18.10;99.90
25718;DHT22;13574;52.040;5.692;2023-05-07T05:36:06;18.10;99.90
25718;DHT22;13574;52.040;5.692;2023-05-07T05:38:32;18.20;99.90
25718;DHT22;13574;52.040;5.692;2023-05-07T05:40:57;18.20;99.90
25718;DHT22;13574;52.040;5.692;2023-05-07T05:43:23;17.80;99.90
25718;DHT22;13574;52.040;5.692;2023-05-07T05:45:49;17.90;99.90
25718;DHT22;13574;52.040;5.692;2023-05-07T05:48:14;18.10;99.90
25718;DHT22;13574;52.040;5.692;2023-05-07T05:50:42;18.00;99.90
25718;DHT22;13574;52.040;5.692;2023-05-07T05:53:07;18.10;99.90
25718;DHT22;13574;52.040;5.692;2023-05-07T05:55:33;18.20;99.90
25718;DHT22;13574;52.040;5.692;2023-05-07T05:58:02;18.30;99.90
25718;DHT22;13574;52.040;5.692;2023-05-07T06:00:29;18.30;99.90
25718;DHT22;13574;52.040;5.692;2023-05-07T06:02:55;18.30;99.90
25718;DHT22;13574;52.040;5.692;2023-05-07T06:05:21;18.30;99.90
25718;DHT22;13574;52.040;5.692;2023-05-07T06:07:46;18.30;99.90
25718;DHT22;13574;52.040;5.692;2023-05-07T06:10:12;18.20;99.90
25718;DHT22;13574;52.040;5.692;2023-05-07T06:12:38;18.40;99.90
25718;DHT22;13574;52.040;5.692;2023-05-07T06:15:04;18.50;99.90
25718;DHT22;13574;52.040;5.692;2023-05-07T06:17:29;18.50;99.90
25718;DHT22;13574;52.040;5.692;2023-05-07T06:19:55;18.50;99.90
25718;DHT22;13574;52.040;5.692;2023-05-07T06:22:21;18.30;99.90
25718;DHT22;13574;52.040;5.692;2023-05-07T06:24:47;18.40;99.90
25718;DHT22;13574;52.040;5.692;2023-05-07T06:27:12;18.30;99.90
25718;DHT22;13574;52.040;5.692;2023-05-07T06:29:38;18.60;99.90
25718;DHT22;13574;52.040;5.692;2023-05-07T06:32:11;18.70;99.90
25718;DHT22;13574;52.040;5.692;2023-05-07T06:34:38;18.70;99.90
25718;DHT22;13574;52.040;5.692;2023-05-07T06:37:04;18.60;99.90
25718;DHT22;13574;52.040;5.692;2023-05-07T06:39:30;18.80;99.90
25718;DHT22;13574;52.040;5.692;2023-05-07T06:42:02;18.90;99.90
25718;DHT22;13574;52.040;5.692;2023-05-07T06:44:28;19.10;99.90
25718;DHT22;13574;52.040;5.692;2023-05-07T06:46:53;19.20;99.90
25718;DHT22;13574;52.040;5.692;2023-05-07T06:49:19;19.00;99.90
25718;DHT22;13574;52.040;5.692;2023-05-07T06:51:45;18.70;99.90
25718;DHT22;13574;52.040;5.692;2023-05-07T06:54:10;18.90;99.90
25718;DHT22;13574;52.040;5.692;2023-05-07T06:56:36;19.00;99.90
25718;DHT22;13574;52.040;5.692;2023-05-07T06:59:02;19.10;99.90
25718;DHT22;13574;52.040;5.692;2023-05-07T07:01:28;19.00;99.90
25718;DHT22;13574;52.040;5.692;2023-05-07T07:03:54;19.10;99.90
25718;DHT22;13574;52.040;5.692;2023-05-07T07:06:20;19.10;99.90
25718;DHT22;13574;52.040;5.692;2023-05-07T07:08:45;19.10;99.90
25718;DHT22;13574;52.040;5.692;2023-05-07T07:11:11;19.10;99.90
25718;DHT22;13574;52.040;5.692;2023-05-07T07:13:37;19.10;99.90
25718;DHT22;13574;52.040;5.692;2023-05-07T07:16:03;19.30;99.90
25718;DHT22;13574;52.040;5.692;2023-05-07T07:18:28;19.20;99.90
25718;DHT22;13574;52.040;5.692;2023-05-07T07:20:54;19.10;99.90
25718;DHT22;13574;52.040;5.692;2023-05-07T07:23:20;19.20;99.90
25718;DHT22;13574;52.040;5.692;2023-05-07T07:25:46;19.50;99.90
25718;DHT22;13574;52.040;5.692;2023-05-07T07:28:12;19.70;99.90
25718;DHT22;13574;52.040;5.692;2023-05-07T07:30:38;19.80;99.90
25718;DHT22;13574;52.040;5.692;2023-05-07T07:33:04;19.90;99.90
25718;DHT22;13574;52.040;5.692;2023-05-07T07:35:31;19.70;99.90
25718;DHT22;13574;52.040;5.692;2023-05-07T07:37:57;19.60;99.90
25718;DHT22;13574;52.040;5.692;2023-05-07T07:40:23;19.40;99.90
25718;DHT22;13574;52.040;5.692;2023-05-07T07:42:49;19.70;99.90
25718;DHT22;13574;52.040;5.692;2023-05-07T07:45:15;19.70;99.90
25718;DHT22;13574;52.040;5.692;2023-05-07T07:47:40;19.50;99.90
25718;DHT22;13574;52.040;5.692;2023-05-07T07:50:07;19.60;99.90
25718;DHT22;13574;52.040;5.692;2023-05-07T07:52:33;19.70;99.90
25718;DHT22;13574;52.040;5.692;2023-05-07T07:54:59;19.70;99.90
25718;DHT22;13574;52.040;5.692;2023-05-07T07:57:25;19.70;99.90
25718;DHT22;13574;52.040;5.692;2023-05-07T07:59:50;19.70;99.90
25718;DHT22;13574;52.040;5.692;2023-05-07T08:02:17;19.80;99.90
25718;DHT22;13574;52.040;5.692;2023-05-07T08:04:42;19.60;99.90
25718;DHT22;13574;52.040;5.692;2023-05-07T08:07:11;19.90;99.90
25718;DHT22;13574;52.040;5.692;2023-05-07T08:09:38;20.20;99.90
25718;DHT22;13574;52.040;5.692;2023-05-07T08:12:07;20.30;99.90
25718;DHT22;13574;52.040;5.692;2023-05-07T08:14:34;20.70;99.90
25718;DHT22;13574;52.040;5.692;2023-05-07T08:17:00;20.70;99.90
25718;DHT22;13574;52.040;5.692;2023-05-07T08:19:26;20.60;99.90
25718;DHT22;13574;52.040;5.692;2023-05-07T08:21:51;20.70;99.90
25718;DHT22;13574;52.040;5.692;2023-05-07T08:24:18;20.60;99.90
25718;DHT22;13574;52.040;5.692;2023-05-07T08:26:44;20.90;99.90
25718;DHT22;13574;52.040;5.692;2023-05-07T08:29:10;21.00;99.90
25718;DHT22;13574;52.040;5.692;2023-05-07T08:31:36;20.70;99.90
25718;DHT22;13574;52.040;5.692;2023-05-07T08:34:04;21.00;99.90
25718;DHT22;13574;52.040;5.692;2023-05-07T08:36:30;21.10;99.90
25718;DHT22;13574;52.040;5.692;2023-05-07T08:38:56;21.00;99.90
25718;DHT22;13574;52.040;5.692;2023-05-07T08:41:21;20.90;99.90
25718;DHT22;13574;52.040;5.692;2023-05-07T08:43:51;20.90;99.90
25718;DHT22;13574;52.040;5.692;2023-05-07T08:46:21;20.90;99.90
25718;DHT22;13574;52.040;5.692;2023-05-07T08:48:51;21.10;99.90
25718;DHT22;13574;52.040;5.692;2023-05-07T08:51:19;21.20;99.90
25718;DHT22;13574;52.040;5.692;2023-05-07T08:53:49;21.30;99.90
25718;DHT22;13574;52.040;5.692;2023-05-07T08:56:16;21.50;99.90
25718;DHT22;13574;52.040;5.692;2023-05-07T08:58:42;21.30;99.90
25718;DHT22;13574;52.040;5.692;2023-05-07T09:01:16;21.30;99.90
25718;DHT22;13574;52.040;5.692;2023-05-07T09:03:45;21.20;99.90
25718;DHT22;13574;52.040;5.692;2023-05-07T09:06:11;21.10;99.90
25718;DHT22;13574;52.040;5.692;2023-05-07T09:08:37;21.10;99.90
25718;DHT22;13574;52.040;5.692;2023-05-07T09:11:03;21.20;99.90
25718;DHT22;13574;52.040;5.692;2023-05-07T09:13:29;20.90;99.90
25718;DHT22;13574;52.040;5.692;2023-05-07T09:15:55;21.50;99.90
25718;DHT22;13574;52.040;5.692;2023-05-07T09:18:21;22.50;99.90
25718;DHT22;13574;52.040;5.692;2023-05-07T09:20:48;23.60;99.90
25718;DHT22;13574;52.040;5.692;2023-05-07T09:23:14;23.20;99.90
25718;DHT22;13574;52.040;5.692;2023-05-07T09:25:40;23.90;99.90
25718;DHT22;13574;52.040;5.692;2023-05-07T09:28:06;23.60;99.90
25718;DHT22;13574;52.040;5.692;2023-05-07T09:30:33;24.20;99.90
25718;DHT22;13574;52.040;5.692;2023-05-07T09:33:01;25.00;99.90
25718;DHT22;13574;52.040;5.692;2023-05-07T09:35:27;25.50;99.90
25718;DHT22;13574;52.040;5.692;2023-05-07T09:37:57;25.60;99.90
25718;DHT22;13574;52.040;5.692;2023-05-07T09:40:25;25.70;99.90
25718;DHT22;13574;52.040;5.692;2023-05-07T09:42:51;25.60;99.90
25718;DHT22;13574;52.040;5.692;2023-05-07T09:45:27;25.70;99.90
25718;DHT22;13574;52.040;5.692;2023-05-07T09:47:57;25.70;99.90
25718;DHT22;13574;52.040;5.692;2023-05-07T09:50:28;25.70;99.90
25718;DHT22;13574;52.040;5.692;2023-05-07T09:52:55;25.80;99.90
25718;DHT22;13574;52.040;5.692;2023-05-07T09:55:22;25.70;99.40
25718;DHT22;13574;52.040;5.692;2023-05-07T09:57:52;25.70;99.10
25718;DHT22;13574;52.040;5.692;2023-05-07T10:00:18;25.40;99.50
25718;DHT22;13574;52.040;5.692;2023-05-07T10:02:46;25.20;99.20
25718;DHT22;13574;52.040;5.692;2023-05-07T10:05:14;24.90;99.60
25718;DHT22;13574;52.040;5.692;2023-05-07T10:07:41;24.90;99.90
25718;DHT22;13574;52.040;5.692;2023-05-07T10:10:07;24.70;99.80
25718;DHT22;13574;52.040;5.692;2023-05-07T10:12:33;24.60;99.90
25718;DHT22;13574;52.040;5.692;2023-05-07T10:15:08;24.80;99.90
25718;DHT22;13574;52.040;5.692;2023-05-07T10:17:38;24.80;99.70
25718;DHT22;13574;52.040;5.692;2023-05-07T10:20:05;24.60;99.90
25718;DHT22;13574;52.040;5.692;2023-05-07T10:22:51;24.30;99.90
25718;DHT22;13574;52.040;5.692;2023-05-07T10:25:28;24.30;99.90
25718;DHT22;13574;52.040;5.692;2023-05-07T10:27:58;24.10;99.90
25718;DHT22;13574;52.040;5.692;2023-05-07T10:33:40;24.00;99.90
25718;DHT22;13574;52.040;5.692;2023-05-07T10:36:06;24.70;99.90
25718;DHT22;13574;52.040;5.692;2023-05-07T10:38:33;25.00;99.90
25718;DHT22;13574;52.040;5.692;2023-05-07T10:40:59;25.00;99.20
25718;DHT22;13574;52.040;5.692;2023-05-07T10:43:24;25.40;98.40
25718;DHT22;13574;52.040;5.692;2023-05-07T10:46:20;25.30;98.20
25718;DHT22;13574;52.040;5.692;2023-05-07T10:51:29;24.80;98.40
25718;DHT22;13574;52.040;5.692;2023-05-07T10:54:22;24.70;98.30
25718;DHT22;13574;52.040;5.692;2023-05-07T10:56:49;24.50;99.30
25718;DHT22;13574;52.040;5.692;2023-05-07T11:01:56;24.30;98.80
25718;DHT22;13574;52.040;5.692;2023-05-07T11:04:23;24.90;98.40
25718;DHT22;13574;52.040;5.692;2023-05-07T11:07:25;25.40;98.30
25718;DHT22;13574;52.040;5.692;2023-05-07T11:15:12;25.60;97.40
25718;DHT22;13574;52.040;5.692;2023-05-07T11:17:59;25.60;97.70
25718;DHT22;13574;52.040;5.692;2023-05-07T11:20:48;25.30;97.70
25718;DHT22;13574;52.040;5.692;2023-05-07T11:26:10;25.60;97.30
25718;DHT22;13574;52.040;5.692;2023-05-07T11:28:42;25.70;97.30
25718;DHT22;13574;52.040;5.692;2023-05-07T11:31:09;26.30;97.70
25718;DHT22;13574;52.040;5.692;2023-05-07T11:33:35;26.70;97.10
25718;DHT22;13574;52.040;5.692;2023-05-07T11:36:05;26.70;95.60
25718;DHT22;13574;52.040;5.692;2023-05-07T11:38:37;26.30;95.90
25718;DHT22;13574;52.040;5.692;2023-05-07T11:41:03;26.10;96.00
25718;DHT22;13574;52.040;5.692;2023-05-07T11:43:31;26.00;96.70
25718;DHT22;13574;52.040;5.692;2023-05-07T11:46:08;26.20;97.10
25718;DHT22;13574;52.040;5.692;2023-05-07T11:48:34;26.30;96.10
25718;DHT22;13574;52.040;5.692;2023-05-07T11:51:08;26.20;95.00
25718;DHT22;13574;52.040;5.692;2023-05-07T11:53:42;25.90;95.00
25718;DHT22;13574;52.040;5.692;2023-05-07T11:56:08;26.00;96.10
25718;DHT22;13574;52.040;5.692;2023-05-07T11:58:34;26.20;95.20
25718;DHT22;13574;52.040;5.692;2023-05-07T12:01:00;26.20;94.80
25718;DHT22;13574;52.040;5.692;2023-05-07T12:03:25;25.70;94.10
25718;DHT22;13574;52.040;5.692;2023-05-07T12:05:51;26.10;94.50
25718;DHT22;13574;52.040;5.692;2023-05-07T12:08:21;26.30;94.30
25718;DHT22;13574;52.040;5.692;2023-05-07T12:10:49;26.20;94.60
25718;DHT22;13574;52.040;5.692;2023-05-07T12:13:19;26.50;95.40
25718;DHT22;13574;52.040;5.692;2023-05-07T12:15:44;26.70;94.60
25718;DHT22;13574;52.040;5.692;2023-05-07T12:18:13;26.80;94.50
25718;DHT22;13574;52.040;5.692;2023-05-07T12:20:40;26.70;93.90
25718;DHT22;13574;52.040;5.692;2023-05-07T12:23:06;26.40;94.80
25718;DHT22;13574;52.040;5.692;2023-05-07T12:25:37;26.50;95.50
25718;DHT22;13574;52.040;5.692;2023-05-07T12:28:02;26.70;95.60
25718;DHT22;13574;52.040;5.692;2023-05-07T12:30:39;27.00;95.30
25718;DHT22;13574;52.040;5.692;2023-05-07T12:33:05;27.00;94.80
25718;DHT22;13574;52.040;5.692;2023-05-07T12:35:32;27.10;95.60
25718;DHT22;13574;52.040;5.692;2023-05-07T12:38:01;27.10;94.90
25718;DHT22;13574;52.040;5.692;2023-05-07T12:40:40;27.00;94.10
25718;DHT22;13574;52.040;5.692;2023-05-07T12:43:07;26.90;95.20
25718;DHT22;13574;52.040;5.692;2023-05-07T12:45:40;27.20;94.70
25718;DHT22;13574;52.040;5.692;2023-05-07T12:48:06;27.10;94.20
25718;DHT22;13574;52.040;5.692;2023-05-07T12:50:35;27.40;94.30
25718;DHT22;13574;52.040;5.692;2023-05-07T12:53:03;27.60;94.10
25718;DHT22;13574;52.040;5.692;2023-05-07T12:55:31;27.40;93.40
25718;DHT22;13574;52.040;5.692;2023-05-07T12:58:01;27.40;93.80
25718;DHT22;13574;52.040;5.692;2023-05-07T13:00:38;27.50;93.60
25718;DHT22;13574;52.040;5.692;2023-05-07T13:03:04;27.70;93.30
25718;DHT22;13574;52.040;5.692;2023-05-07T13:05:31;27.80;93.70
25718;DHT22;13574;52.040;5.692;2023-05-07T13:07:57;27.90;92.80
25718;DHT22;13574;52.040;5.692;2023-05-07T13:10:23;28.10;92.70
25718;DHT22;13574;52.040;5.692;2023-05-07T13:12:49;28.20;92.00
25718;DHT22;13574;52.040;5.692;2023-05-07T13:15:15;28.20;92.30
25718;DHT22;13574;52.040;5.692;2023-05-07T13:17:41;28.30;92.60
25718;DHT22;13574;52.040;5.692;2023-05-07T13:20:08;28.30;92.60
25718;DHT22;13574;52.040;5.692;2023-05-07T13:22:34;28.20;92.20
25718;DHT22;13574;52.040;5.692;2023-05-07T13:25:00;28.10;92.70
25718;DHT22;13574;52.040;5.692;2023-05-07T13:27:25;28.00;93.20
25718;DHT22;13574;52.040;5.692;2023-05-07T13:29:51;27.50;93.90
25718;DHT22;13574;52.040;5.692;2023-05-07T13:32:17;26.90;94.40
25718;DHT22;13574;52.040;5.692;2023-05-07T13:34:43;27.00;94.70
25718;DHT22;13574;52.040;5.692;2023-05-07T13:37:08;26.80;94.90
25718;DHT22;13574;52.040;5.692;2023-05-07T13:39:34;25.90;96.00
25718;DHT22;13574;52.040;5.692;2023-05-07T13:42:00;25.90;96.20
25718;DHT22;13574;52.040;5.692;2023-05-07T13:44:26;25.60;96.30
25718;DHT22;13574;52.040;5.692;2023-05-07T13:46:52;25.50;96.80
25718;DHT22;13574;52.040;5.692;2023-05-07T13:49:17;25.40;97.10
25718;DHT22;13574;52.040;5.692;2023-05-07T13:51:43;25.00;97.40
25718;DHT22;13574;52.040;5.692;2023-05-07T13:54:09;25.10;97.70
25718;DHT22;13574;52.040;5.692;2023-05-07T13:56:34;25.40;97.60
25718;DHT22;13574;52.040;5.692;2023-05-07T13:59:01;25.90;97.00
25718;DHT22;13574;52.040;5.692;2023-05-07T14:01:27;26.10;96.60
25718;DHT22;13574;52.040;5.692;2023-05-07T14:03:53;26.20;96.20
25718;DHT22;13574;52.040;5.692;2023-05-07T14:06:19;25.70;96.60
25718;DHT22;13574;52.040;5.692;2023-05-07T14:08:45;25.40;97.10
25718;DHT22;13574;52.040;5.692;2023-05-07T14:11:10;25.50;97.30
25718;DHT22;13574;52.040;5.692;2023-05-07T14:13:36;25.00;97.90
25718;DHT22;13574;52.040;5.692;2023-05-07T14:16:04;24.70;98.20
25718;DHT22;13574;52.040;5.692;2023-05-07T14:18:30;24.90;98.50
25718;DHT22;13574;52.040;5.692;2023-05-07T14:20:55;25.30;98.40
25718;DHT22;13574;52.040;5.692;2023-05-07T14:23:21;25.20;98.20
25718;DHT22;13574;52.040;5.692;2023-05-07T14:25:54;25.00;98.00
25718;DHT22;13574;52.040;5.692;2023-05-07T14:28:21;24.90;98.10
25718;DHT22;13574;52.040;5.692;2023-05-07T14:30:48;24.70;98.50
25718;DHT22;13574;52.040;5.692;2023-05-07T14:33:13;24.80;98.30
25718;DHT22;13574;52.040;5.692;2023-05-07T14:35:39;24.70;98.60
25718;DHT22;13574;52.040;5.692;2023-05-07T14:38:05;24.70;98.80
25718;DHT22;13574;52.040;5.692;2023-05-07T14:40:30;24.60;98.80
25718;DHT22;13574;52.040;5.692;2023-05-07T14:42:56;24.40;98.80
25718;DHT22;13574;52.040;5.692;2023-05-07T14:45:23;24.40;99.10
25718;DHT22;13574;52.040;5.692;2023-05-07T14:47:48;24.30;99.10
25718;DHT22;13574;52.040;5.692;2023-05-07T14:50:14;24.40;99.30
25718;DHT22;13574;52.040;5.692;2023-05-07T14:52:40;24.20;99.40
25718;DHT22;13574;52.040;5.692;2023-05-07T14:55:06;24.10;99.60
25718;DHT22;13574;52.040;5.692;2023-05-07T14:57:32;24.00;99.80
25718;DHT22;13574;52.040;5.692;2023-05-07T15:00:03;24.10;99.80
25718;DHT22;13574;52.040;5.692;2023-05-07T15:02:29;23.80;99.90
25718;DHT22;13574;52.040;5.692;2023-05-07T15:04:55;23.70;99.90
25718;DHT22;13574;52.040;5.692;2023-05-07T15:07:21;23.80;99.90
25718;DHT22;13574;52.040;5.692;2023-05-07T15:09:47;23.60;99.90
25718;DHT22;13574;52.040;5.692;2023-05-07T15:12:13;23.60;99.90
25718;DHT22;13574;52.040;5.692;2023-05-07T15:14:39;23.50;99.90
25718;DHT22;13574;52.040;5.692;2023-05-07T15:17:05;23.50;99.90
25718;DHT22;13574;52.040;5.692;2023-05-07T15:19:30;23.60;99.90
25718;DHT22;13574;52.040;5.692;2023-05-07T15:22:00;23.50;99.90
25718;DHT22;13574;52.040;5.692;2023-05-07T15:24:29;23.40;99.90
25718;DHT22;13574;52.040;5.692;2023-05-07T15:26:55;23.50;99.90
25718;DHT22;13574;52.040;5.692;2023-05-07T15:29:21;23.30;99.90
25718;DHT22;13574;52.040;5.692;2023-05-07T15:31:47;23.40;99.90
25718;DHT22;13574;52.040;5.692;2023-05-07T15:34:13;23.70;99.90
25718;DHT22;13574;52.040;5.692;2023-05-07T15:36:40;23.90;99.90
25718;DHT22;13574;52.040;5.692;2023-05-07T15:39:09;24.00;99.90
25718;DHT22;13574;52.040;5.692;2023-05-07T15:41:38;23.70;99.90
25718;DHT22;13574;52.040;5.692;2023-05-07T15:44:04;23.90;99.90
25718;DHT22;13574;52.040;5.692;2023-05-07T15:46:30;23.50;99.90